sensor_id;sensor_type;location;lat;lon;timestamp;P1;durP1;ratioP1;P2;durP2;ratioP2
12412;SDS011;13877;18.896;-99.222;2022-09-06T00:01:37;2.65;;;1.38;;
12412;SDS011;13877;18.896;-99.222;2022-09-06T00:04:04;4.55;;;1.38;;
12412;SDS011;13877;18.896;-99.222;2022-09-06T00:06:31;4.75;;;1.70;;
12412;SDS011;13877;18.896;-99.222;2022-09-06T00:08:58;1.52;;;1.25;;
12412;SDS011;13877;18.896;-99.222;2022-09-06T00:11:25;2.38;;;1.48;;
12412;SDS011;13877;18.896;-99.222;2022-09-06T00:13:52;6.20;;;1.60;;
12412;SDS011;13877;18.896;-99.222;2022-09-06T00:16:21;7.85;;;1.80;;
12412;SDS011;13877;18.896;-99.222;2022-09-06T00:18:52;3.70;;;1.85;;
12412;SDS011;13877;18.896;-99.222;2022-09-06T00:21:24;6.85;;;2.17;;
12412;SDS011;13877;18.896;-99.222;2022-09-06T00:23:53;17.60;;;2.58;;
12412;SDS011;13877;18.896;-99.222;2022-09-06T00:26:20;3.63;;;1.88;;
12412;SDS011;13877;18.896;-99.222;2022-09-06T00:28:48;5.63;;;1.73;;
12412;SDS011;13877;18.896;-99.222;2022-09-06T00:31:18;8.00;;;1.40;;
12412;SDS011;13877;18.896;-99.222;2022-09-06T00:33:48;10.10;;;1.83;;
12412;SDS011;13877;18.896;-99.222;2022-09-06T00:36:15;6.47;;;1.45;;
12412;SDS011;13877;18.896;-99.222;2022-09-06T00:38:43;11.90;;;1.40;;
12412;SDS011;13877;18.896;-99.222;2022-09-06T00:41:11;7.35;;;1.70;;
12412;SDS011;13877;18.896;-99.222;2022-09-06T00:43:40;3.28;;;1.20;;
12412;SDS011;13877;18.896;-99.222;2022-09-06T00:46:08;1.77;;;1.17;;
12412;SDS011;13877;18.896;-99.222;2022-09-06T00:48:39;5.57;;;1.33;;
12412;SDS011;13877;18.896;-99.222;2022-09-06T00:51:08;6.45;;;1.30;;
12412;SDS011;13877;18.896;-99.222;2022-09-06T00:53:38;8.80;;;2.00;;
12412;SDS011;13877;18.896;-99.222;2022-09-06T00:56:06;5.68;;;1.30;;
12412;SDS011;13877;18.896;-99.222;2022-09-06T00:58:33;6.07;;;1.80;;
12412;SDS011;13877;18.896;-99.222;2022-09-06T01:01:01;11.40;;;2.22;;
12412;SDS011;13877;18.896;-99.222;2022-09-06T01:03:29;8.45;;;1.88;;
12412;SDS011;13877;18.896;-99.222;2022-09-06T01:06:05;12.73;;;2.03;;
12412;SDS011;13877;18.896;-99.222;2022-09-06T01:11:45;10.27;;;1.73;;
12412;SDS011;13877;18.896;-99.222;2022-09-06T01:17:15;6.97;;;2.20;;
12412;SDS011;13877;18.896;-99.222;2022-09-06T01:22:52;8.27;;;2.60;;
12412;SDS011;13877;18.896;-99.222;2022-09-06T01:25:44;4.30;;;2.15;;
12412;SDS011;13877;18.896;-99.222;2022-09-06T01:28:29;4.32;;;2.00;;
12412;SDS011;13877;18.896;-99.222;2022-09-06T01:31:21;10.25;;;2.65;;
12412;SDS011;13877;18.896;-99.222;2022-09-06T01:36:47;9.05;;;2.47;;
12412;SDS011;13877;18.896;-99.222;2022-09-06T01:39:35;3.63;;;1.98;;
12412;SDS011;13877;18.896;-99.222;2022-09-06T01:42:12;7.00;;;1.98;;
12412;SDS011;13877;18.896;-99.222;2022-09-06T01:45:10;8.10;;;2.38;;
12412;SDS011;13877;18.896;-99.222;2022-09-06T01:53:20;7.00;;;2.90;;
12412;SDS011;13877;18.896;-99.222;2022-09-06T01:56:07;6.55;;;2.88;;
12412;SDS011;13877;18.896;-99.222;2022-09-06T02:01:20;8.60;;;3.88;;
12412;SDS011;13877;18.896;-99.222;2022-09-06T02:06:49;10.50;;;4.05;;
12412;SDS011;13877;18.896;-99.222;2022-09-06T02:09:31;9.02;;;3.83;;
12412;SDS011;13877;18.896;-99.222;2022-09-06T02:12:04;11.15;;;3.40;;
12412;SDS011;13877;18.896;-99.222;2022-09-06T02:14:35;10.00;;;3.58;;
12412;SDS011;13877;18.896;-99.222;2022-09-06T02:17:11;10.40;;;3.78;;
12412;SDS011;13877;18.896;-99.222;2022-09-06T02:19:49;11.13;;;3.28;;
12412;SDS011;13877;18.896;-99.222;2022-09-06T02:22:26;7.38;;;2.88;;
12412;SDS011;13877;18.896;-99.222;2022-09-06T02:24:57;4.47;;;3.05;;
12412;SDS011;13877;18.896;-99.222;2022-09-06T02:27:26;13.38;;;3.80;;
12412;SDS011;13877;18.896;-99.222;2022-09-06T02:29:53;14.73;;;3.10;;
12412;SDS011;13877;18.896;-99.222;2022-09-06T02:32:21;7.97;;;2.55;;
12412;SDS011;13877;18.896;-99.222;2022-09-06T02:34:50;9.02;;;2.63;;
12412;SDS011;13877;18.896;-99.222;2022-09-06T02:37:18;8.48;;;2.92;;
12412;SDS011;13877;18.896;-99.222;2022-09-06T02:39:46;4.43;;;2.50;;
12412;SDS011;13877;18.896;-99.222;2022-09-06T02:42:13;9.65;;;3.03;;
12412;SDS011;13877;18.896;-99.222;2022-09-06T02:44:42;6.82;;;2.50;;
12412;SDS011;13877;18.896;-99.222;2022-09-06T02:47:09;5.68;;;2.72;;
12412;SDS011;13877;18.896;-99.222;2022-09-06T02:49:37;8.63;;;2.85;;
12412;SDS011;13877;18.896;-99.222;2022-09-06T02:52:03;11.15;;;3.00;;
12412;SDS011;13877;18.896;-99.222;2022-09-06T02:54:31;13.20;;;2.83;;
12412;SDS011;13877;18.896;-99.222;2022-09-06T02:56:57;7.78;;;2.53;;
12412;SDS011;13877;18.896;-99.222;2022-09-06T02:59:24;5.38;;;2.95;;
12412;SDS011;13877;18.896;-99.222;2022-09-06T03:01:51;15.63;;;3.08;;
12412;SDS011;13877;18.896;-99.222;2022-09-06T03:04:18;4.80;;;2.60;;
12412;SDS011;13877;18.896;-99.222;2022-09-06T03:06:45;11.77;;;3.10;;
12412;SDS011;13877;18.896;-99.222;2022-09-06T03:09:12;9.60;;;2.90;;
12412;SDS011;13877;18.896;-99.222;2022-09-06T03:11:39;5.97;;;2.58;;
12412;SDS011;13877;18.896;-99.222;2022-09-06T03:14:06;8.77;;;2.47;;
12412;SDS011;13877;18.896;-99.222;2022-09-06T03:16:33;6.88;;;2.20;;
12412;SDS011;13877;18.896;-99.222;2022-09-06T03:19:01;14.18;;;2.90;;
12412;SDS011;13877;18.896;-99.222;2022-09-06T03:21:28;7.65;;;2.45;;
12412;SDS011;13877;18.896;-99.222;2022-09-06T03:23:55;4.22;;;1.90;;
12412;SDS011;13877;18.896;-99.222;2022-09-06T03:26:24;8.07;;;1.65;;
12412;SDS011;13877;18.896;-99.222;2022-09-06T03:28:51;5.25;;;1.60;;
12412;SDS011;13877;18.896;-99.222;2022-09-06T03:31:18;4.70;;;1.63;;
12412;SDS011;13877;18.896;-99.222;2022-09-06T03:33:46;1.88;;;1.30;;
12412;SDS011;13877;18.896;-99.222;2022-09-06T03:36:12;8.68;;;1.85;;
12412;SDS011;13877;18.896;-99.222;2022-09-06T03:38:40;2.40;;;1.45;;
12412;SDS011;13877;18.896;-99.222;2022-09-06T03:41:07;3.17;;;1.65;;
12412;SDS011;13877;18.896;-99.222;2022-09-06T03:43:35;2.33;;;1.60;;
12412;SDS011;13877;18.896;-99.222;2022-09-06T03:46:02;6.18;;;1.20;;
12412;SDS011;13877;18.896;-99.222;2022-09-06T03:48:28;5.05;;;1.02;;
12412;SDS011;13877;18.896;-99.222;2022-09-06T03:50:56;2.42;;;1.50;;
12412;SDS011;13877;18.896;-99.222;2022-09-06T03:53:25;2.55;;;1.30;;
12412;SDS011;13877;18.896;-99.222;2022-09-06T03:55:53;2.72;;;1.30;;
12412;SDS011;13877;18.896;-99.222;2022-09-06T03:58:23;4.60;;;1.55;;
12412;SDS011;13877;18.896;-99.222;2022-09-06T04:01:04;4.35;;;1.17;;
12412;SDS011;13877;18.896;-99.222;2022-09-06T04:03:34;4.78;;;1.63;;
12412;SDS011;13877;18.896;-99.222;2022-09-06T04:06:01;1.90;;;1.27;;
12412;SDS011;13877;18.896;-99.222;2022-09-06T04:08:30;4.43;;;1.20;;
12412;SDS011;13877;18.896;-99.222;2022-09-06T04:10:58;5.20;;;1.20;;
12412;SDS011;13877;18.896;-99.222;2022-09-06T04:13:26;5.18;;;1.23;;
12412;SDS011;13877;18.896;-99.222;2022-09-06T04:15:54;3.70;;;1.10;;
12412;SDS011;13877;18.896;-99.222;2022-09-06T04:18:21;3.35;;;1.17;;
12412;SDS011;13877;18.896;-99.222;2022-09-06T04:20:52;1.85;;;1.30;;
12412;SDS011;13877;18.896;-99.222;2022-09-06T04:23:23;2.72;;;1.23;;
12412;SDS011;13877;18.896;-99.222;2022-09-06T04:25:53;4.50;;;1.60;;
12412;SDS011;13877;18.896;-99.222;2022-09-06T04:28:21;4.05;;;1.60;;
12412;SDS011;13877;18.896;-99.222;2022-09-06T04:30:53;3.75;;;1.50;;
12412;SDS011;13877;18.896;-99.222;2022-09-06T04:33:21;5.47;;;1.27;;
12412;SDS011;13877;18.896;-99.222;2022-09-06T04:35:57;5.68;;;1.77;;
12412;SDS011;13877;18.896;-99.222;2022-09-06T04:38:26;6.65;;;1.88;;
12412;SDS011;13877;18.896;-99.222;2022-09-06T04:40:54;6.45;;;1.67;;
12412;SDS011;13877;18.896;-99.222;2022-09-06T04:43:21;5.60;;;1.88;;
12412;SDS011;13877;18.896;-99.222;2022-09-06T04:45:49;6.93;;;1.85;;
12412;SDS011;13877;18.896;-99.222;2022-09-06T04:48:16;4.40;;;2.22;;
12412;SDS011;13877;18.896;-99.222;2022-09-06T04:50:44;5.75;;;2.28;;
12412;SDS011;13877;18.896;-99.222;2022-09-06T04:53:10;6.30;;;2.20;;
12412;SDS011;13877;18.896;-99.222;2022-09-06T04:55:38;8.48;;;2.22;;
12412;SDS011;13877;18.896;-99.222;2022-09-06T04:58:05;11.38;;;2.30;;
12412;SDS011;13877;18.896;-99.222;2022-09-06T05:00:32;7.03;;;2.75;;
12412;SDS011;13877;18.896;-99.222;2022-09-06T05:03:00;2.55;;;1.75;;
12412;SDS011;13877;18.896;-99.222;2022-09-06T05:05:28;4.22;;;1.85;;
12412;SDS011;13877;18.896;-99.222;2022-09-06T05:07:55;8.30;;;2.10;;
12412;SDS011;13877;18.896;-99.222;2022-09-06T05:10:22;6.72;;;1.88;;
12412;SDS011;13877;18.896;-99.222;2022-09-06T05:12:49;7.30;;;2.30;;
12412;SDS011;13877;18.896;-99.222;2022-09-06T05:15:18;4.60;;;2.25;;
12412;SDS011;13877;18.896;-99.222;2022-09-06T05:17:46;4.13;;;1.73;;
12412;SDS011;13877;18.896;-99.222;2022-09-06T05:20:14;5.50;;;1.77;;
12412;SDS011;13877;18.896;-99.222;2022-09-06T05:22:41;9.07;;;1.83;;
12412;SDS011;13877;18.896;-99.222;2022-09-06T05:25:08;5.28;;;2.40;;
12412;SDS011;13877;18.896;-99.222;2022-09-06T05:27:35;5.72;;;1.90;;
12412;SDS011;13877;18.896;-99.222;2022-09-06T05:30:02;7.50;;;2.53;;
12412;SDS011;13877;18.896;-99.222;2022-09-06T05:32:29;6.82;;;2.13;;
12412;SDS011;13877;18.896;-99.222;2022-09-06T05:34:57;13.00;;;2.35;;
12412;SDS011;13877;18.896;-99.222;2022-09-06T05:37:23;11.43;;;2.70;;
12412;SDS011;13877;18.896;-99.222;2022-09-06T05:39:50;5.70;;;2.70;;
12412;SDS011;13877;18.896;-99.222;2022-09-06T05:42:17;9.82;;;2.38;;
12412;SDS011;13877;18.896;-99.222;2022-09-06T05:44:45;13.27;;;2.63;;
12412;SDS011;13877;18.896;-99.222;2022-09-06T05:47:11;4.05;;;2.35;;
12412;SDS011;13877;18.896;-99.222;2022-09-06T05:49:39;6.45;;;2.00;;
12412;SDS011;13877;18.896;-99.222;2022-09-06T05:52:05;9.90;;;2.35;;
12412;SDS011;13877;18.896;-99.222;2022-09-06T05:54:33;6.57;;;2.08;;
12412;SDS011;13877;18.896;-99.222;2022-09-06T05:56:59;9.77;;;1.75;;
12412;SDS011;13877;18.896;-99.222;2022-09-06T05:59:27;4.20;;;1.65;;
12412;SDS011;13877;18.896;-99.222;2022-09-06T06:01:53;9.38;;;2.00;;
12412;SDS011;13877;18.896;-99.222;2022-09-06T06:04:21;3.40;;;1.00;;
12412;SDS011;13877;18.896;-99.222;2022-09-06T06:06:47;4.72;;;1.30;;
12412;SDS011;13877;18.896;-99.222;2022-09-06T06:09:15;3.80;;;0.90;;
12412;SDS011;13877;18.896;-99.222;2022-09-06T06:11:42;8.82;;;1.45;;
12412;SDS011;13877;18.896;-99.222;2022-09-06T06:14:09;5.47;;;0.90;;
12412;SDS011;13877;18.896;-99.222;2022-09-06T06:16:35;4.60;;;1.10;;
12412;SDS011;13877;18.896;-99.222;2022-09-06T06:19:03;9.93;;;1.55;;
12412;SDS011;13877;18.896;-99.222;2022-09-06T06:21:30;1.55;;;1.00;;
12412;SDS011;13877;18.896;-99.222;2022-09-06T06:23:59;2.63;;;0.98;;
12412;SDS011;13877;18.896;-99.222;2022-09-06T06:26:29;6.05;;;0.95;;
12412;SDS011;13877;18.896;-99.222;2022-09-06T06:28:58;3.20;;;1.17;;
12412;SDS011;13877;18.896;-99.222;2022-09-06T06:31:27;7.38;;;1.30;;
12412;SDS011;13877;18.896;-99.222;2022-09-06T06:33:54;5.00;;;1.10;;
12412;SDS011;13877;18.896;-99.222;2022-09-06T06:36:23;2.40;;;0.77;;
12412;SDS011;13877;18.896;-99.222;2022-09-06T06:38:52;3.25;;;1.10;;
12412;SDS011;13877;18.896;-99.222;2022-09-06T06:41:20;8.93;;;1.00;;
12412;SDS011;13877;18.896;-99.222;2022-09-06T06:43:50;7.20;;;1.20;;
12412;SDS011;13877;18.896;-99.222;2022-09-06T06:48:48;9.07;;;1.63;;
12412;SDS011;13877;18.896;-99.222;2022-09-06T06:51:18;6.38;;;1.70;;
12412;SDS011;13877;18.896;-99.222;2022-09-06T06:53:46;2.75;;;1.50;;
12412;SDS011;13877;18.896;-99.222;2022-09-06T06:56:17;6.55;;;1.95;;
12412;SDS011;13877;18.896;-99.222;2022-09-06T06:58:47;4.78;;;1.92;;
12412;SDS011;13877;18.896;-99.222;2022-09-06T07:01:17;6.05;;;1.85;;
12412;SDS011;13877;18.896;-99.222;2022-09-06T07:03:45;9.02;;;2.05;;
12412;SDS011;13877;18.896;-99.222;2022-09-06T07:06:13;10.77;;;1.77;;
12412;SDS011;13877;18.896;-99.222;2022-09-06T07:08:40;10.18;;;1.85;;
12412;SDS011;13877;18.896;-99.222;2022-09-06T07:11:09;5.97;;;1.50;;
12412;SDS011;13877;18.896;-99.222;2022-09-06T07:13:37;6.22;;;1.15;;
12412;SDS011;13877;18.896;-99.222;2022-09-06T07:16:17;5.90;;;1.55;;
12412;SDS011;13877;18.896;-99.222;2022-09-06T07:18:50;4.50;;;1.00;;
12412;SDS011;13877;18.896;-99.222;2022-09-06T07:23:52;9.40;;;1.80;;
12412;SDS011;13877;18.896;-99.222;2022-09-06T07:26:20;11.48;;;1.38;;
12412;SDS011;13877;18.896;-99.222;2022-09-06T07:28:59;9.67;;;1.53;;
12412;SDS011;13877;18.896;-99.222;2022-09-06T07:31:30;7.65;;;1.65;;
12412;SDS011;13877;18.896;-99.222;2022-09-06T07:33:57;7.05;;;1.45;;
12412;SDS011;13877;18.896;-99.222;2022-09-06T07:36:24;4.05;;;1.20;;
12412;SDS011;13877;18.896;-99.222;2022-09-06T07:38:51;10.43;;;1.20;;
12412;SDS011;13877;18.896;-99.222;2022-09-06T07:41:19;2.00;;;1.50;;
12412;SDS011;13877;18.896;-99.222;2022-09-06T07:43:47;4.68;;;1.40;;
12412;SDS011;13877;18.896;-99.222;2022-09-06T07:46:19;4.22;;;1.23;;
12412;SDS011;13877;18.896;-99.222;2022-09-06T07:48:46;4.70;;;1.50;;
12412;SDS011;13877;18.896;-99.222;2022-09-06T07:51:15;6.65;;;1.55;;
12412;SDS011;13877;18.896;-99.222;2022-09-06T07:53:45;4.28;;;1.30;;
12412;SDS011;13877;18.896;-99.222;2022-09-06T07:56:18;12.43;;;1.42;;
12412;SDS011;13877;18.896;-99.222;2022-09-06T07:58:47;2.60;;;1.25;;
12412;SDS011;13877;18.896;-99.222;2022-09-06T08:01:23;4.75;;;1.00;;
12412;SDS011;13877;18.896;-99.222;2022-09-06T08:03:55;3.22;;;1.02;;
12412;SDS011;13877;18.896;-99.222;2022-09-06T08:06:24;6.30;;;1.77;;
12412;SDS011;13877;18.896;-99.222;2022-09-06T08:08:52;7.88;;;1.60;;
12412;SDS011;13877;18.896;-99.222;2022-09-06T08:11:20;7.20;;;1.38;;
12412;SDS011;13877;18.896;-99.222;2022-09-06T08:13:49;3.15;;;1.20;;
12412;SDS011;13877;18.896;-99.222;2022-09-06T08:16:19;6.50;;;1.60;;
12412;SDS011;13877;18.896;-99.222;2022-09-06T08:18:50;4.50;;;1.10;;
12412;SDS011;13877;18.896;-99.222;2022-09-06T08:21:18;8.60;;;1.83;;
12412;SDS011;13877;18.896;-99.222;2022-09-06T08:23:49;6.55;;;1.63;;
12412;SDS011;13877;18.896;-99.222;2022-09-06T08:26:18;6.38;;;2.03;;
12412;SDS011;13877;18.896;-99.222;2022-09-06T08:28:47;9.27;;;2.80;;
12412;SDS011;13877;18.896;-99.222;2022-09-06T08:31:19;6.38;;;3.85;;
12412;SDS011;13877;18.896;-99.222;2022-09-06T08:33:46;9.35;;;4.53;;
12412;SDS011;13877;18.896;-99.222;2022-09-06T08:36:14;12.27;;;3.72;;
12412;SDS011;13877;18.896;-99.222;2022-09-06T08:38:41;8.63;;;3.65;;
12412;SDS011;13877;18.896;-99.222;2022-09-06T08:41:17;9.70;;;4.03;;
12412;SDS011;13877;18.896;-99.222;2022-09-06T08:43:58;12.05;;;3.80;;
12412;SDS011;13877;18.896;-99.222;2022-09-06T08:46:39;14.85;;;3.60;;
12412;SDS011;13877;18.896;-99.222;2022-09-06T08:49:13;10.98;;;3.15;;
12412;SDS011;13877;18.896;-99.222;2022-09-06T08:54:26;13.15;;;4.97;;
12412;SDS011;13877;18.896;-99.222;2022-09-06T09:00:04;9.77;;;3.95;;
12412;SDS011;13877;18.896;-99.222;2022-09-06T09:05:26;11.30;;;3.70;;
12412;SDS011;13877;18.896;-99.222;2022-09-06T09:10:44;19.67;;;3.97;;
12412;SDS011;13877;18.896;-99.222;2022-09-06T09:15:50;13.45;;;3.83;;
12412;SDS011;13877;18.896;-99.222;2022-09-06T09:18:19;14.70;;;4.65;;
12412;SDS011;13877;18.896;-99.222;2022-09-06T09:20:50;14.80;;;4.05;;
12412;SDS011;13877;18.896;-99.222;2022-09-06T09:23:17;24.33;;;4.47;;
12412;SDS011;13877;18.896;-99.222;2022-09-06T09:25:44;9.70;;;3.90;;
12412;SDS011;13877;18.896;-99.222;2022-09-06T09:28:16;9.48;;;4.00;;
12412;SDS011;13877;18.896;-99.222;2022-09-06T09:30:52;12.30;;;3.70;;
12412;SDS011;13877;18.896;-99.222;2022-09-06T09:33:22;10.27;;;4.00;;
12412;SDS011;13877;18.896;-99.222;2022-09-06T09:35:49;17.45;;;5.15;;
12412;SDS011;13877;18.896;-99.222;2022-09-06T09:38:19;8.32;;;4.75;;
12412;SDS011;13877;18.896;-99.222;2022-09-06T09:40:56;15.48;;;5.03;;
12412;SDS011;13877;18.896;-99.222;2022-09-06T09:43:30;17.55;;;5.13;;
12412;SDS011;13877;18.896;-99.222;2022-09-06T09:51:29;13.27;;;5.10;;
12412;SDS011;13877;18.896;-99.222;2022-09-06T09:53:58;20.52;;;5.53;;
12412;SDS011;13877;18.896;-99.222;2022-09-06T09:56:39;13.23;;;5.95;;
12412;SDS011;13877;18.896;-99.222;2022-09-06T09:59:19;15.43;;;6.28;;
12412;SDS011;13877;18.896;-99.222;2022-09-06T10:02:00;32.65;;;8.38;;
12412;SDS011;13877;18.896;-99.222;2022-09-06T10:04:44;21.13;;;7.80;;
12412;SDS011;13877;18.896;-99.222;2022-09-06T10:07:16;18.08;;;9.35;;
12412;SDS011;13877;18.896;-99.222;2022-09-06T10:12:31;18.40;;;8.68;;
12412;SDS011;13877;18.896;-99.222;2022-09-06T10:15:06;22.73;;;9.65;;
12412;SDS011;13877;18.896;-99.222;2022-09-06T10:20:15;31.42;;;9.40;;
12412;SDS011;13877;18.896;-99.222;2022-09-06T10:25:34;22.90;;;8.95;;
12412;SDS011;13877;18.896;-99.222;2022-09-06T10:28:09;23.17;;;9.18;;
12412;SDS011;13877;18.896;-99.222;2022-09-06T10:36:27;24.75;;;8.57;;
12412;SDS011;13877;18.896;-99.222;2022-09-06T10:39:47;18.10;;;7.80;;
12412;SDS011;13877;18.896;-99.222;2022-09-06T10:45:21;28.60;;;8.48;;
12412;SDS011;13877;18.896;-99.222;2022-09-06T10:47:55;19.60;;;7.70;;
12412;SDS011;13877;18.896;-99.222;2022-09-06T11:02:18;24.13;;;6.80;;
12412;SDS011;13877;18.896;-99.222;2022-09-06T11:05:05;15.23;;;6.63;;
12412;SDS011;13877;18.896;-99.222;2022-09-06T11:07:40;16.65;;;5.90;;
12412;SDS011;13877;18.896;-99.222;2022-09-06T11:10:19;23.70;;;6.20;;
12412;SDS011;13877;18.896;-99.222;2022-09-06T11:15:31;14.73;;;5.80;;
12412;SDS011;13877;18.896;-99.222;2022-09-06T11:18:08;10.75;;;5.38;;
12412;SDS011;13877;18.896;-99.222;2022-09-06T11:29:53;20.42;;;5.75;;
12412;SDS011;13877;18.896;-99.222;2022-09-06T11:32:29;14.73;;;5.38;;
12412;SDS011;13877;18.896;-99.222;2022-09-06T11:34:58;15.60;;;5.38;;
12412;SDS011;13877;18.896;-99.222;2022-09-06T11:37:46;10.55;;;4.10;;
12412;SDS011;13877;18.896;-99.222;2022-09-06T11:40:23;8.82;;;4.20;;
12412;SDS011;13877;18.896;-99.222;2022-09-06T11:53:25;6.15;;;3.75;;
12412;SDS011;13877;18.896;-99.222;2022-09-06T12:01:35;16.05;;;2.85;;
12412;SDS011;13877;18.896;-99.222;2022-09-06T12:04:04;9.10;;;2.63;;
12412;SDS011;13877;18.896;-99.222;2022-09-06T12:06:43;6.72;;;1.98;;
12412;SDS011;13877;18.896;-99.222;2022-09-06T12:09:35;8.02;;;2.60;;
12412;SDS011;13877;18.896;-99.222;2022-09-06T12:12:03;7.90;;;2.30;;
12412;SDS011;13877;18.896;-99.222;2022-09-06T12:14:35;5.53;;;2.30;;
12412;SDS011;13877;18.896;-99.222;2022-09-06T12:25:15;7.63;;;2.47;;
12412;SDS011;13877;18.896;-99.222;2022-09-06T12:28:03;7.10;;;2.50;;
12412;SDS011;13877;18.896;-99.222;2022-09-06T12:33:26;3.70;;;2.55;;
12412;SDS011;13877;18.896;-99.222;2022-09-06T12:36:17;12.32;;;2.28;;
12412;SDS011;13877;18.896;-99.222;2022-09-06T12:41:40;8.23;;;2.70;;
12412;SDS011;13877;18.896;-99.222;2022-09-06T12:44:13;12.05;;;3.03;;
12412;SDS011;13877;18.896;-99.222;2022-09-06T12:46:47;9.38;;;3.13;;
12412;SDS011;13877;18.896;-99.222;2022-09-06T12:49:20;10.88;;;3.22;;
12412;SDS011;13877;18.896;-99.222;2022-09-06T12:51:48;8.45;;;2.50;;
12412;SDS011;13877;18.896;-99.222;2022-09-06T12:54:24;6.85;;;2.78;;
12412;SDS011;13877;18.896;-99.222;2022-09-06T12:57:00;7.80;;;2.72;;
12412;SDS011;13877;18.896;-99.222;2022-09-06T12:59:45;7.63;;;2.92;;
12412;SDS011;13877;18.896;-99.222;2022-09-06T13:02:15;4.93;;;2.72;;
12412;SDS011;13877;18.896;-99.222;2022-09-06T13:04:59;7.88;;;2.90;;
12412;SDS011;13877;18.896;-99.222;2022-09-06T13:07:30;8.70;;;3.28;;
12412;SDS011;13877;18.896;-99.222;2022-09-06T13:10:00;16.33;;;3.05;;
12412;SDS011;13877;18.896;-99.222;2022-09-06T13:12:32;8.85;;;3.05;;
12412;SDS011;13877;18.896;-99.222;2022-09-06T13:15:45;13.82;;;3.05;;
12412;SDS011;13877;18.896;-99.222;2022-09-06T13:17:50;13.38;;;3.13;;
12412;SDS011;13877;18.896;-99.222;2022-09-06T13:20:22;10.15;;;3.28;;
12412;SDS011;13877;18.896;-99.222;2022-09-06T13:22:52;4.38;;;2.95;;
12412;SDS011;13877;18.896;-99.222;2022-09-06T13:25:30;7.65;;;3.53;;
12412;SDS011;13877;18.896;-99.222;2022-09-06T13:27:58;10.05;;;3.13;;
12412;SDS011;13877;18.896;-99.222;2022-09-06T13:30:37;6.72;;;2.90;;
12412;SDS011;13877;18.896;-99.222;2022-09-06T13:33:24;9.65;;;2.70;;
12412;SDS011;13877;18.896;-99.222;2022-09-06T13:38:37;14.98;;;3.45;;
12412;SDS011;13877;18.896;-99.222;2022-09-06T13:41:40;7.63;;;2.67;;
12412;SDS011;13877;18.896;-99.222;2022-09-06T13:46:32;7.30;;;2.88;;
12412;SDS011;13877;18.896;-99.222;2022-09-06T13:49:02;10.07;;;3.10;;
12412;SDS011;13877;18.896;-99.222;2022-09-06T13:51:30;10.18;;;2.67;;
12412;SDS011;13877;18.896;-99.222;2022-09-06T13:54:05;8.20;;;2.25;;
12412;SDS011;13877;18.896;-99.222;2022-09-06T13:56:33;7.03;;;2.88;;
12412;SDS011;13877;18.896;-99.222;2022-09-06T13:59:01;9.25;;;2.33;;
12412;SDS011;13877;18.896;-99.222;2022-09-06T14:01:29;10.75;;;2.85;;
12412;SDS011;13877;18.896;-99.222;2022-09-06T14:03:58;11.55;;;3.10;;
12412;SDS011;13877;18.896;-99.222;2022-09-06T14:06:25;15.27;;;3.38;;
12412;SDS011;13877;18.896;-99.222;2022-09-06T14:08:52;10.88;;;3.25;;
12412;SDS011;13877;18.896;-99.222;2022-09-06T14:11:19;11.27;;;3.15;;
12412;SDS011;13877;18.896;-99.222;2022-09-06T14:13:47;7.95;;;2.90;;
12412;SDS011;13877;18.896;-99.222;2022-09-06T14:16:14;7.57;;;2.85;;
12412;SDS011;13877;18.896;-99.222;2022-09-06T14:18:41;15.73;;;2.97;;
12412;SDS011;13877;18.896;-99.222;2022-09-06T14:21:08;8.23;;;1.85;;
12412;SDS011;13877;18.896;-99.222;2022-09-06T14:23:35;11.73;;;1.88;;
12412;SDS011;13877;18.896;-99.222;2022-09-06T14:26:02;16.35;;;2.17;;
12412;SDS011;13877;18.896;-99.222;2022-09-06T14:28:31;14.50;;;2.80;;
12412;SDS011;13877;18.896;-99.222;2022-09-06T14:31:11;9.18;;;2.85;;
12412;SDS011;13877;18.896;-99.222;2022-09-06T14:33:39;14.40;;;2.53;;
12412;SDS011;13877;18.896;-99.222;2022-09-06T14:36:07;11.15;;;2.10;;
12412;SDS011;13877;18.896;-99.222;2022-09-06T14:38:37;7.80;;;1.92;;
12412;SDS011;13877;18.896;-99.222;2022-09-06T14:41:06;9.50;;;2.33;;
12412;SDS011;13877;18.896;-99.222;2022-09-06T14:43:33;5.38;;;2.20;;
12412;SDS011;13877;18.896;-99.222;2022-09-06T14:46:05;6.15;;;3.08;;
12412;SDS011;13877;18.896;-99.222;2022-09-06T14:48:35;6.28;;;2.38;;
12412;SDS011;13877;18.896;-99.222;2022-09-06T14:51:06;8.77;;;2.88;;
12412;SDS011;13877;18.896;-99.222;2022-09-06T14:53:41;12.43;;;2.92;;
12412;SDS011;13877;18.896;-99.222;2022-09-06T14:56:09;7.10;;;2.58;;
12412;SDS011;13877;18.896;-99.222;2022-09-06T14:58:37;12.00;;;3.15;;
12412;SDS011;13877;18.896;-99.222;2022-09-06T15:01:12;5.80;;;2.60;;
12412;SDS011;13877;18.896;-99.222;2022-09-06T15:03:52;10.35;;;3.35;;
12412;SDS011;13877;18.896;-99.222;2022-09-06T15:06:22;10.57;;;3.05;;
12412;SDS011;13877;18.896;-99.222;2022-09-06T15:08:50;12.02;;;3.40;;
12412;SDS011;13877;18.896;-99.222;2022-09-06T15:11:29;5.75;;;3.05;;
12412;SDS011;13877;18.896;-99.222;2022-09-06T15:13:59;6.87;;;3.17;;
12412;SDS011;13877;18.896;-99.222;2022-09-06T15:16:28;9.00;;;2.70;;
12412;SDS011;13877;18.896;-99.222;2022-09-06T15:18:56;8.70;;;3.42;;
12412;SDS011;13877;18.896;-99.222;2022-09-06T15:21:23;7.57;;;3.20;;
12412;SDS011;13877;18.896;-99.222;2022-09-06T15:23:51;15.35;;;3.83;;
12412;SDS011;13877;18.896;-99.222;2022-09-06T15:26:19;14.73;;;3.50;;
12412;SDS011;13877;18.896;-99.222;2022-09-06T15:28:46;12.10;;;3.30;;
12412;SDS011;13877;18.896;-99.222;2022-09-06T15:31:13;14.10;;;3.90;;
12412;SDS011;13877;18.896;-99.222;2022-09-06T15:33:41;9.82;;;3.50;;
12412;SDS011;13877;18.896;-99.222;2022-09-06T15:36:08;13.20;;;3.92;;
12412;SDS011;13877;18.896;-99.222;2022-09-06T15:38:40;22.42;;;4.60;;
12412;SDS011;13877;18.896;-99.222;2022-09-06T15:41:16;23.58;;;4.15;;
12412;SDS011;13877;18.896;-99.222;2022-09-06T15:43:46;11.10;;;3.70;;
12412;SDS011;13877;18.896;-99.222;2022-09-06T15:46:15;10.68;;;3.92;;
12412;SDS011;13877;18.896;-99.222;2022-09-06T15:48:46;6.80;;;3.15;;
12412;SDS011;13877;18.896;-99.222;2022-09-06T15:51:18;12.75;;;3.40;;
12412;SDS011;13877;18.896;-99.222;2022-09-06T15:53:46;5.85;;;3.00;;
12412;SDS011;13877;18.896;-99.222;2022-09-06T15:56:13;7.00;;;2.60;;
12412;SDS011;13877;18.896;-99.222;2022-09-06T15:58:42;14.30;;;2.60;;
12412;SDS011;13877;18.896;-99.222;2022-09-06T16:01:17;4.50;;;2.47;;
12412;SDS011;13877;18.896;-99.222;2022-09-06T16:03:49;9.23;;;2.38;;
12412;SDS011;13877;18.896;-99.222;2022-09-06T16:06:24;14.05;;;2.47;;
12412;SDS011;13877;18.896;-99.222;2022-09-06T16:08:56;9.07;;;2.35;;
12412;SDS011;13877;18.896;-99.222;2022-09-06T16:11:25;9.65;;;2.58;;
12412;SDS011;13877;18.896;-99.222;2022-09-06T16:13:54;8.43;;;2.90;;
12412;SDS011;13877;18.896;-99.222;2022-09-06T16:16:21;5.07;;;2.85;;
12412;SDS011;13877;18.896;-99.222;2022-09-06T16:18:48;8.90;;;2.40;;
12412;SDS011;13877;18.896;-99.222;2022-09-06T16:21:21;9.18;;;2.15;;
12412;SDS011;13877;18.896;-99.222;2022-09-06T16:23:51;5.55;;;1.90;;
12412;SDS011;13877;18.896;-99.222;2022-09-06T16:26:21;4.28;;;2.25;;
12412;SDS011;13877;18.896;-99.222;2022-09-06T16:28:49;5.43;;;1.60;;
12412;SDS011;13877;18.896;-99.222;2022-09-06T16:31:18;8.85;;;1.75;;
12412;SDS011;13877;18.896;-99.222;2022-09-06T16:33:46;3.42;;;1.60;;
12412;SDS011;13877;18.896;-99.222;2022-09-06T16:36:15;2.15;;;1.10;;
12412;SDS011;13877;18.896;-99.222;2022-09-06T16:38:43;3.33;;;1.30;;
12412;SDS011;13877;18.896;-99.222;2022-09-06T16:41:12;7.68;;;1.65;;
12412;SDS011;13877;18.896;-99.222;2022-09-06T16:43:48;4.88;;;1.88;;